Wetterdaten: aktuell Montag, 20.09.2021 06:20
Datum Zeit Temp. A. Feuchte A. Luftdruck Regen Wind Richtung Richtung Taupunkt Windchill Windben Empfang
20.09.2021 06:20 11,3 C 91 % 1020,3 hPa 0,0 l/m 2,9 km/h (1 Bft) O-NO 68 9,9 C 11,3 C 8,7 km/h (2 Bft) 99 %
20.09.2021 06:10 11,3 C 91 % 1020,1 hPa 0,0 l/m 3,5 km/h (1 Bft) O-NO 70 9,9 C 11,3 C 10,9 km/h (2 Bft) 100 %
20.09.2021 06:00 11,2 C 91 % 1020,2 hPa 0,0 l/m 1,1 km/h (1 Bft) O 101 9,8 C 11,2 C 6,5 km/h (2 Bft) 100 %
20.09.2021 05:50 11,2 C 91 % 1020,1 hPa 0,0 l/m 2,9 km/h (1 Bft) O 84 9,8 C 11,2 C 8,7 km/h (2 Bft) 100 %
20.09.2021 05:40 11,2 C 91 % 1020,0 hPa 0,0 l/m 2,8 km/h (1 Bft) O 80 9,8 C 11,2 C 8,7 km/h (2 Bft) 100 %
20.09.2021 05:30 11,1 C 92 % 1020,0 hPa 0,0 l/m 2,9 km/h (1 Bft) O 84 9,8 C 11,1 C 8,7 km/h (2 Bft) 100 %
20.09.2021 05:20 11,1 C 92 % 1019,9 hPa 0,0 l/m 1,9 km/h (1 Bft) O-NO 77 9,8 C 11,1 C 8,7 km/h (2 Bft) 100 %
20.09.2021 05:10 11,0 C 92 % 1019,8 hPa 0,0 l/m 2,8 km/h (1 Bft) O-NO 63 9,8 C 11,0 C 8,7 km/h (2 Bft) 100 %
20.09.2021 05:00 10,9 C 92 % 1019,8 hPa 0,0 l/m 1,2 km/h (1 Bft) O 84 9,7 C 10,9 C 4,3 km/h (1 Bft) 99 %
20.09.2021 04:50 10,8 C 92 % 1019,8 hPa 0,0 l/m 2,4 km/h (1 Bft) O 84 9,6 C 10,8 C 6,5 km/h (2 Bft) 99 %
20.09.2021 04:40 10,7 C 92 % 1019,7 hPa 0,0 l/m 2,4 km/h (1 Bft) O 84 9,5 C 10,7 C 8,7 km/h (2 Bft) 100 %
20.09.2021 04:30 10,6 C 92 % 1019,7 hPa 0,0 l/m 1,9 km/h (1 Bft) O-NO 74 9,4 C 10,6 C 6,5 km/h (2 Bft) 100 %
20.09.2021 04:20 10,5 C 92 % 1019,6 hPa 0,0 l/m 1,4 km/h (1 Bft) O-NO 71 9,3 C 10,5 C 6,5 km/h (2 Bft) 100 %
20.09.2021 04:10 10,4 C 92 % 1019,6 hPa 0,0 l/m 1,1 km/h (1 Bft) O 84 9,2 C 10,4 C 8,7 km/h (2 Bft) 99 %
20.09.2021 04:00 10,4 C 92 % 1019,6 hPa 0,0 l/m 2,1 km/h (1 Bft) O 84 9,2 C 10,4 C 6,5 km/h (2 Bft) 100 %
20.09.2021 03:50 10,3 C 92 % 1019,6 hPa 0,0 l/m 1,8 km/h (1 Bft) O 80 9,1 C 10,3 C 6,5 km/h (2 Bft) 100 %
20.09.2021 03:40 10,2 C 92 % 1019,6 hPa 0,0 l/m 2,6 km/h (1 Bft) O 80 9,0 C 10,2 C 13,0 km/h (3 Bft) 99 %
20.09.2021 03:30 10,1 C 92 % 1019,5 hPa 0,0 l/m 1,5 km/h (1 Bft) O-NO 66 8,9 C 10,1 C 4,3 km/h (1 Bft) 100 %
20.09.2021 03:20 10,0 C 91 % 1019,6 hPa 0,0 l/m 1,9 km/h (1 Bft) O-NO 68 8,6 C 10,0 C 6,5 km/h (2 Bft) 100 %
20.09.2021 03:10 9,9 C 91 % 1019,6 hPa 0,0 l/m 1,9 km/h (1 Bft) O-NO 67 8,5 C 9,9 C 6,5 km/h (2 Bft) 100 %
20.09.2021 03:00 9,8 C 91 % 1019,6 hPa 0,0 l/m 1,1 km/h (1 Bft) O-NO 66 8,4 C 9,8 C 4,3 km/h (1 Bft) 99 %
20.09.2021 02:50 9,8 C 91 % 1019,6 hPa 0,0 l/m 0,1 km/h (0 Bft) O-NO 66 8,4 C 9,8 C 2,2 km/h (1 Bft) 99 %
20.09.2021 02:40 9,9 C 91 % 1019,6 hPa 0,0 l/m 0,0 km/h (0 Bft) O-NO 66 8,5 C 9,9 C 0,0 km/h (0 Bft) 100 %
20.09.2021 02:30 9,9 C 90 % 1019,6 hPa 0,0 l/m 0,0 km/h (0 Bft) O-NO 66 8,3 C 9,9 C 0,0 km/h (0 Bft) 100 %
20.09.2021 02:20 9,9 C 90 % 1019,6 hPa 0,0 l/m 0,0 km/h (0 Bft) O-NO 66 8,3 C 9,9 C 0,0 km/h (0 Bft) 100 %
20.09.2021 02:10 10,1 C 89 % 1019,6 hPa 0,0 l/m 0,0 km/h (0 Bft) O-NO 66 8,4 C 10,1 C 0,0 km/h (0 Bft) 100 %
20.09.2021 02:00 10,2 C 89 % 1019,6 hPa 0,0 l/m 0,0 km/h (0 Bft) O-NO 66 8,5 C 10,2 C 0,0 km/h (0 Bft) 99 %
20.09.2021 01:50 10,3 C 89 % 1019,6 hPa 0,0 l/m 0,0 km/h (0 Bft) O-NO 66 8,6 C 10,3 C 0,0 km/h (0 Bft) 98 %
20.09.2021 01:40 10,5 C 88 % 1019,6 hPa 0,0 l/m 0,2 km/h (0 Bft) O-NO 66 8,6 C 10,5 C 4,3 km/h (1 Bft) 99 %
20.09.2021 01:30 10,6 C 88 % 1019,5 hPa 0,0 l/m 0,4 km/h (0 Bft) O-NO 66 8,7 C 10,6 C 2,2 km/h (1 Bft) 98 %
20.09.2021 01:20 10,7 C 88 % 1019,4 hPa 0,0 l/m 1,3 km/h (1 Bft) O-NO 66 8,8 C 10,7 C 4,3 km/h (1 Bft) 100 %
20.09.2021 01:10 10,8 C 88 % 1019,3 hPa 0,0 l/m 1,5 km/h (1 Bft) O-NO 66 8,9 C 10,8 C 4,3 km/h (1 Bft) 99 %
20.09.2021 01:00 10,9 C 88 % 1019,2 hPa 0,0 l/m 1,5 km/h (1 Bft) O-NO 66 9,0 C 10,9 C 6,5 km/h (2 Bft) 99 %
20.09.2021 00:50 11,1 C 87 % 1019,3 hPa 0,0 l/m 0,0 km/h (0 Bft) O-NO 65 9,0 C 11,1 C 0,0 km/h (0 Bft) 99 %
20.09.2021 00:40 11,2 C 87 % 1019,3 hPa 0,0 l/m 0,7 km/h (0 Bft) O-NO 65 9,1 C 11,2 C 6,5 km/h (2 Bft) 99 %
20.09.2021 00:30 11,3 C 87 % 1019,3 hPa 0,0 l/m 0,4 km/h (0 Bft) O-NO 66 9,2 C 11,3 C 4,3 km/h (1 Bft) 98 %
20.09.2021 00:20 11,4 C 87 % 1019,2 hPa 0,0 l/m 1,1 km/h (1 Bft) O-NO 66 9,3 C 11,4 C 4,3 km/h (1 Bft) 100 %
20.09.2021 00:10 11,5 C 87 % 1019,1 hPa 0,0 l/m 1,8 km/h (1 Bft) O-NO 66 9,4 C 11,5 C 6,5 km/h (2 Bft) 100 %
20.09.2021 00:00 11,4 C 87 % 1019,0 hPa 0,0 l/m 1,1 km/h (1 Bft) O-NO 66 9,3 C 11,4 C 4,3 km/h (1 Bft) 100 %
19.09.2021 23:50 11,4 C 87 % 1018,9 hPa 0,0 l/m 1,7 km/h (1 Bft) O-NO 66 9,3 C 11,4 C 6,5 km/h (2 Bft) 99 %
19.09.2021 23:40 11,6 C 86 % 1018,8 hPa 0,0 l/m 1,0 km/h (0 Bft) O-NO 66 9,3 C 11,6 C 4,3 km/h (1 Bft) 98 %
19.09.2021 23:30 11,7 C 85 % 1018,8 hPa 0,0 l/m 1,5 km/h (1 Bft) O-NO 66 9,3 C 11,7 C 4,3 km/h (1 Bft) 100 %
19.09.2021 23:20 11,9 C 85 % 1018,7 hPa 0,0 l/m 1,9 km/h (1 Bft) O-NO 64 9,5 C 11,9 C 6,5 km/h (2 Bft) 99 %
19.09.2021 23:10 12,2 C 84 % 1018,7 hPa 0,0 l/m 2,2 km/h (1 Bft) O-NO 63 9,6 C 12,2 C 6,5 km/h (2 Bft) 99 %
19.09.2021 23:00 12,3 C 83 % 1018,7 hPa 0,0 l/m 1,7 km/h (1 Bft) O-NO 62 9,5 C 12,3 C 8,7 km/h (2 Bft) 100 %
19.09.2021 22:50 12,6 C 83 % 1018,6 hPa 0,0 l/m 2,8 km/h (1 Bft) O-NO 61 9,8 C 12,6 C 8,7 km/h (2 Bft) 100 %
19.09.2021 22:40 12,8 C 82 % 1018,5 hPa 0,0 l/m 3,2 km/h (1 Bft) O-NO 61 9,8 C 12,8 C 8,7 km/h (2 Bft) 100 %
19.09.2021 22:30 12,9 C 82 % 1018,4 hPa 0,0 l/m 3,5 km/h (1 Bft) O 89 9,9 C 12,9 C 8,7 km/h (2 Bft) 99 %
19.09.2021 22:20 12,9 C 82 % 1018,4 hPa 0,0 l/m 2,1 km/h (1 Bft) O-NO 76 9,9 C 12,9 C 6,5 km/h (2 Bft) 99 %
19.09.2021 22:10 13,0 C 82 % 1018,5 hPa 0,0 l/m 3,7 km/h (1 Bft) O-NO 74 10,0 C 13,0 C 8,7 km/h (2 Bft) 99 %
19.09.2021 22:00 13,1 C 81 % 1018,5 hPa 0,0 l/m 2,7 km/h (1 Bft) O 90 9,9 C 13,1 C 8,7 km/h (2 Bft) 99 %
19.09.2021 21:50 13,1 C 81 % 1018,4 hPa 0,0 l/m 4,4 km/h (1 Bft) O 80 9,9 C 13,1 C 8,7 km/h (2 Bft) 98 %
19.09.2021 21:40 13,1 C 81 % 1018,3 hPa 0,0 l/m 3,2 km/h (1 Bft) O 87 9,9 C 13,1 C 13,0 km/h (3 Bft) 100 %
19.09.2021 21:30 13,2 C 81 % 1018,4 hPa 0,0 l/m 2,4 km/h (1 Bft) O 90 10,0 C 13,2 C 8,7 km/h (2 Bft) 99 %
19.09.2021 21:20 13,2 C 81 % 1018,4 hPa 0,0 l/m 3,3 km/h (1 Bft) O 90 10,0 C 13,2 C 8,7 km/h (2 Bft) 99 %
19.09.2021 21:10 13,2 C 81 % 1018,4 hPa 0,0 l/m 2,0 km/h (1 Bft) O 80 10,0 C 13,2 C 6,5 km/h (2 Bft) 100 %
19.09.2021 21:00 13,2 C 81 % 1018,4 hPa 0,0 l/m 1,6 km/h (1 Bft) O 84 10,0 C 13,2 C 4,3 km/h (1 Bft) 99 %
19.09.2021 20:50 13,2 C 80 % 1018,3 hPa 0,0 l/m 2,9 km/h (1 Bft) O 84 9,8 C 13,2 C 8,7 km/h (2 Bft) 99 %
19.09.2021 20:40 13,2 C 80 % 1018,2 hPa 0,0 l/m 3,4 km/h (1 Bft) O-NO 72 9,8 C 13,2 C 8,7 km/h (2 Bft) 99 %
19.09.2021 20:30 13,2 C 80 % 1018,1 hPa 0,0 l/m 1,7 km/h (1 Bft) O 90 9,8 C 13,2 C 8,7 km/h (2 Bft) 99 %
19.09.2021 20:20 13,3 C 80 % 1018,0 hPa 0,0 l/m 2,4 km/h (1 Bft) O-SO 110 9,9 C 13,3 C 6,5 km/h (2 Bft) 100 %
19.09.2021 20:10 13,3 C 79 % 1018,1 hPa 0,0 l/m 2,0 km/h (1 Bft) O-SO 110 9,7 C 13,3 C 6,5 km/h (2 Bft) 98 %
19.09.2021 20:00 13,4 C 79 % 1018,0 hPa 0,0 l/m 3,2 km/h (1 Bft) O-SO 107 9,8 C 13,4 C 8,7 km/h (2 Bft) 99 %
19.09.2021 19:40 13,8 C 78 % 1017,8 hPa 0,0 l/m 2,4 km/h (1 Bft) O-SO 103 10,0 C 13,8 C 6,5 km/h (2 Bft) 99 %
19.09.2021 19:30 13,9 C 77 % 1017,7 hPa 0,0 l/m 2,2 km/h (1 Bft) O-SO 112 9,9 C 13,9 C 8,7 km/h (2 Bft) 100 %
19.09.2021 19:20 14,2 C 76 % 1017,6 hPa 0,0 l/m 2,9 km/h (1 Bft) O-SO 109 10,0 C 14,2 C 8,7 km/h (2 Bft) 99 %
19.09.2021 19:10 14,4 C 76 % 1017,5 hPa 0,0 l/m 3,2 km/h (1 Bft) O-SO 116 10,2 C 14,4 C 6,5 km/h (2 Bft) 99 %
19.09.2021 19:00 14,6 C 75 % 1017,4 hPa 0,0 l/m 3,9 km/h (1 Bft) O-SO 109 10,2 C 14,6 C 8,7 km/h (2 Bft) 98 %
19.09.2021 18:50 14,8 C 73 % 1017,3 hPa 0,0 l/m 5,7 km/h (1 Bft) O-SO 110 10,0 C 14,8 C 17,4 km/h (3 Bft) 100 %
19.09.2021 18:40 15,1 C 72 % 1017,2 hPa 0,0 l/m 6,4 km/h (2 Bft) SO 124 10,1 C 15,1 C 15,2 km/h (3 Bft) 100 %
19.09.2021 18:31 15,3 C 70 % 1017,2 hPa 0,0 l/m 7,5 km/h (2 Bft) O 84 9,9 C 15,3 C 19,6 km/h (3 Bft) 100 %
19.09.2021 18:20 15,6 C 68 % 1017,1 hPa 0,0 l/m 8,2 km/h (2 Bft) O 98 9,7 C 15,6 C 21,7 km/h (4 Bft) 100 %
19.09.2021 18:10 15,9 C 67 % 1017,0 hPa 0,0 l/m 8,9 km/h (2 Bft) O 80 9,8 C 15,9 C 21,7 km/h (4 Bft) 100 %
19.09.2021 18:00 16,4 C 67 % 1016,8 hPa 0,0 l/m 9,4 km/h (2 Bft) S-SO 148 10,3 C 16,4 C 21,7 km/h (4 Bft) 100 %
19.09.2021 17:50 16,9 C 65 % 1016,8 hPa 0,0 l/m 11,2 km/h (2 Bft) O 87 10,3 C 16,9 C 28,2 km/h (4 Bft) 99 %
19.09.2021 17:40 17,5 C 64 % 1016,7 hPa 0,0 l/m 9,0 km/h (2 Bft) SO 136 10,6 C 17,5 C 23,9 km/h (4 Bft) 100 %
19.09.2021 17:30 17,7 C 63 % 1016,8 hPa 0,0 l/m 10,8 km/h (2 Bft) O-SO 115 10,6 C 17,7 C 26,1 km/h (4 Bft) 99 %
19.09.2021 17:20 17,8 C 62 % 1016,9 hPa 0,0 l/m 11,7 km/h (2 Bft) O-NO 76 10,4 C 17,8 C 26,1 km/h (4 Bft) 98 %
19.09.2021 17:10 17,8 C 63 % 1017,0 hPa 0,0 l/m 10,8 km/h (2 Bft) SO 128 10,7 C 17,8 C 23,9 km/h (4 Bft) 99 %
19.09.2021 17:00 17,8 C 64 % 1016,9 hPa 0,0 l/m 9,9 km/h (2 Bft) O-NO 72 10,9 C 17,8 C 26,1 km/h (4 Bft) 99 %
19.09.2021 16:50 18,2 C 64 % 1016,9 hPa 0,0 l/m 8,2 km/h (2 Bft) O 101 11,3 C 18,2 C 28,2 km/h (4 Bft) 100 %
19.09.2021 16:40 17,9 C 65 % 1017,0 hPa 0,0 l/m 8,9 km/h (2 Bft) SO 146 11,2 C 17,9 C 26,1 km/h (4 Bft) 99 %
19.09.2021 16:30 17,4 C 66 % 1017,1 hPa 0,0 l/m 9,6 km/h (2 Bft) O 98 11,0 C 17,4 C 21,7 km/h (4 Bft) 98 %
19.09.2021 16:20 17,5 C 66 % 1017,1 hPa 0,0 l/m 9,8 km/h (2 Bft) S-SO 150 11,1 C 17,5 C 28,2 km/h (4 Bft) 100 %
19.09.2021 16:10 17,6 C 66 % 1017,1 hPa 0,0 l/m 8,8 km/h (2 Bft) W 260 11,2 C 17,6 C 23,9 km/h (4 Bft) 100 %
19.09.2021 16:00 17,7 C 68 % 1017,1 hPa 0,0 l/m 9,8 km/h (2 Bft) O-SO 119 11,7 C 17,7 C 23,9 km/h (4 Bft) 100 %
19.09.2021 15:50 17,6 C 68 % 1017,0 hPa 0,0 l/m 10,8 km/h (2 Bft) SO 131 11,6 C 17,6 C 23,9 km/h (4 Bft) 99 %
19.09.2021 15:40 17,4 C 69 % 1017,0 hPa 0,0 l/m 8,1 km/h (2 Bft) O-SO 119 11,7 C 17,4 C 26,1 km/h (4 Bft) 100 %
19.09.2021 15:30 17,4 C 71 % 1017,1 hPa 0,0 l/m 11,1 km/h (2 Bft) O 84 12,1 C 17,4 C 28,2 km/h (4 Bft) 99 %
19.09.2021 15:20 17,5 C 71 % 1017,1 hPa 0,0 l/m 10,5 km/h (2 Bft) O 94 12,2 C 17,5 C 23,9 km/h (4 Bft) 99 %
19.09.2021 15:10 17,5 C 70 % 1017,2 hPa 0,0 l/m 7,9 km/h (2 Bft) SO 130 12,0 C 17,5 C 17,4 km/h (3 Bft) 100 %
19.09.2021 15:00 17,4 C 73 % 1017,2 hPa 0,0 l/m 7,5 km/h (2 Bft) O 87 12,5 C 17,4 C 26,1 km/h (4 Bft) 98 %
19.09.2021 14:50 17,2 C 72 % 1017,1 hPa 0,0 l/m 9,0 km/h (2 Bft) SO 136 12,1 C 17,2 C 23,9 km/h (4 Bft) 100 %
19.09.2021 14:40 17,1 C 72 % 1017,2 hPa 0,0 l/m 9,7 km/h (2 Bft) O 92 12,0 C 17,1 C 23,9 km/h (4 Bft) 99 %
19.09.2021 14:30 17,1 C 73 % 1017,4 hPa 0,0 l/m 11,3 km/h (2 Bft) SO 134 12,2 C 17,1 C 28,2 km/h (4 Bft) 100 %
19.09.2021 14:20 17,2 C 73 % 1017,3 hPa 0,0 l/m 8,6 km/h (2 Bft) SO 127 12,3 C 17,2 C 21,7 km/h (4 Bft) 100 %
19.09.2021 14:10 17,2 C 73 % 1017,3 hPa 0,0 l/m 11,1 km/h (2 Bft) O 99 12,3 C 17,2 C 30,4 km/h (5 Bft) 100 %
19.09.2021 14:00 17,2 C 74 % 1017,3 hPa 0,0 l/m 8,8 km/h (2 Bft) O-NO 68 12,5 C 17,2 C 23,9 km/h (4 Bft) 99 %
19.09.2021 13:50 17,1 C 75 % 1017,3 hPa 0,0 l/m 6,8 km/h (2 Bft) O 84 12,6 C 17,1 C 17,4 km/h (3 Bft) 100 %
19.09.2021 13:40 17,1 C 72 % 1017,4 hPa 0,0 l/m 10,4 km/h (2 Bft) O-SO 111 12,0 C 17,1 C 23,9 km/h (4 Bft) 99 %
19.09.2021 13:30 17,5 C 71 % 1017,4 hPa 0,0 l/m 10,4 km/h (2 Bft) O 91 12,2 C 17,5 C 21,7 km/h (4 Bft) 99 %
19.09.2021 13:20 18,0 C 70 % 1017,4 hPa 0,0 l/m 9,5 km/h (2 Bft) O 101 12,4 C 18,0 C 30,4 km/h (5 Bft) 100 %
19.09.2021 13:10 17,6 C 70 % 1017,4 hPa 0,0 l/m 12,8 km/h (3 Bft) O-SO 123 12,1 C 17,6 C 32,6 km/h (5 Bft) 99 %
19.09.2021 13:00 17,9 C 70 % 1017,4 hPa 0,0 l/m 9,7 km/h (2 Bft) O 97 12,3 C 17,9 C 23,9 km/h (4 Bft) 100 %
19.09.2021 12:50 17,9 C 72 % 1017,4 hPa 0,0 l/m 10,1 km/h (2 Bft) O 87 12,8 C 17,9 C 30,4 km/h (5 Bft) 100 %
19.09.2021 12:40 17,8 C 72 % 1017,4 hPa 0,0 l/m 10,7 km/h (2 Bft) O-SO 113 12,7 C 17,8 C 28,2 km/h (4 Bft) 99 %
19.09.2021 12:30 18,1 C 72 % 1017,4 hPa 0,0 l/m 10,5 km/h (2 Bft) O 98 13,0 C 18,1 C 23,9 km/h (4 Bft) 100 %
19.09.2021 12:20 17,9 C 73 % 1017,4 hPa 0,0 l/m 9,7 km/h (2 Bft) O 98 13,0 C 17,9 C 26,1 km/h (4 Bft) 100 %
19.09.2021 12:10 17,8 C 73 % 1017,5 hPa 0,0 l/m 10,5 km/h (2 Bft) O 84 12,9 C 17,8 C 23,9 km/h (4 Bft) 98 %
19.09.2021 12:00 17,8 C 74 % 1017,5 hPa 0,0 l/m 11,1 km/h (2 Bft) O-SO 111 13,1 C 17,8 C 26,1 km/h (4 Bft) 99 %
19.09.2021 11:50 17,5 C 75 % 1017,4 hPa 0,0 l/m 8,6 km/h (2 Bft) O 88 13,0 C 17,5 C 23,9 km/h (4 Bft) 99 %
19.09.2021 11:40 17,4 C 76 % 1017,5 hPa 0,0 l/m 7,3 km/h (2 Bft) O-NO 66 13,1 C 17,4 C 17,4 km/h (3 Bft) 100 %
19.09.2021 11:30 17,1 C 77 % 1017,6 hPa 0,0 l/m 10,0 km/h (2 Bft) O-NO 70 13,0 C 17,1 C 23,9 km/h (4 Bft) 99 %
19.09.2021 11:20 16,8 C 78 % 1017,5 hPa 0,0 l/m 9,6 km/h (2 Bft) S 169 12,9 C 16,8 C 21,7 km/h (4 Bft) 99 %
19.09.2021 11:10 16,6 C 79 % 1017,6 hPa 0,0 l/m 10,2 km/h (2 Bft) N-NO 28 12,9 C 16,6 C 21,7 km/h (4 Bft) 100 %
19.09.2021 11:00 16,2 C 80 % 1017,6 hPa 0,0 l/m 7,7 km/h (2 Bft) O-SO 102 12,7 C 16,2 C 21,7 km/h (4 Bft) 98 %
19.09.2021 10:50 15,9 C 81 % 1017,5 hPa 0,0 l/m 9,2 km/h (2 Bft) O 96 12,6 C 15,9 C 23,9 km/h (4 Bft) 99 %
19.09.2021 10:40 15,6 C 82 % 1017,4 hPa 0,0 l/m 9,5 km/h (2 Bft) S-SW 209 12,5 C 15,6 C 23,9 km/h (4 Bft) 99 %
19.09.2021 10:30 15,2 C 82 % 1017,3 hPa 0,0 l/m 9,2 km/h (2 Bft) NO 42 12,1 C 15,2 C 26,1 km/h (4 Bft) 98 %
19.09.2021 10:20 14,8 C 84 % 1017,3 hPa 0,0 l/m 9,2 km/h (2 Bft) O 101 12,1 C 14,8 C 21,7 km/h (4 Bft) 99 %
19.09.2021 10:10 14,4 C 85 % 1017,3 hPa 0,0 l/m 8,7 km/h (2 Bft) O 88 11,9 C 14,4 C 19,6 km/h (3 Bft) 100 %
19.09.2021 10:00 14,3 C 85 % 1017,3 hPa 0,0 l/m 10,9 km/h (2 Bft) O-SO 105 11,8 C 14,3 C 26,1 km/h (4 Bft) 99 %
19.09.2021 09:50 14,1 C 86 % 1017,2 hPa 0,0 l/m 7,9 km/h (2 Bft) O-SO 118 11,8 C 14,1 C 21,7 km/h (4 Bft) 99 %
19.09.2021 09:40 13,7 C 87 % 1017,1 hPa 0,0 l/m 8,5 km/h (2 Bft) O 94 11,6 C 13,7 C 21,7 km/h (4 Bft) 100 %
19.09.2021 09:30 13,4 C 88 % 1017,0 hPa 0,0 l/m 7,0 km/h (2 Bft) O-SO 112 11,5 C 13,4 C 19,6 km/h (3 Bft) 98 %
19.09.2021 09:20 13,2 C 88 % 1017,0 hPa 0,0 l/m 8,8 km/h (2 Bft) O-NO 63 11,3 C 13,2 C 21,7 km/h (4 Bft) 99 %
19.09.2021 09:10 13,1 C 88 % 1016,9 hPa 0,0 l/m 9,5 km/h (2 Bft) O 98 11,2 C 13,1 C 21,7 km/h (4 Bft) 100 %
19.09.2021 09:00 12,9 C 89 % 1016,9 hPa 0,0 l/m 7,9 km/h (2 Bft) O-SO 119 11,1 C 12,9 C 19,6 km/h (3 Bft) 99 %
19.09.2021 08:50 12,8 C 89 % 1017,0 hPa 0,0 l/m 7,0 km/h (2 Bft) O 82 11,0 C 12,8 C 15,2 km/h (3 Bft) 99 %
19.09.2021 08:40 12,8 C 89 % 1017,0 hPa 0,0 l/m 6,1 km/h (2 Bft) O-SO 123 11,0 C 12,8 C 17,4 km/h (3 Bft) 99 %
19.09.2021 08:30 12,7 C 90 % 1016,9 hPa 0,0 l/m 6,5 km/h (2 Bft) O 99 11,1 C 12,7 C 17,4 km/h (3 Bft) 100 %
19.09.2021 08:20 12,5 C 90 % 1017,0 hPa 0,0 l/m 6,6 km/h (2 Bft) O-NO 60 10,9 C 12,5 C 19,6 km/h (3 Bft) 99 %
19.09.2021 08:10 12,4 C 90 % 1017,0 hPa 0,0 l/m 5,9 km/h (2 Bft) O 92 10,8 C 12,4 C 19,6 km/h (3 Bft) 100 %
19.09.2021 08:00 12,3 C 90 % 1016,9 hPa 0,0 l/m 9,9 km/h (2 Bft) O-SO 109 10,7 C 12,3 C 21,7 km/h (4 Bft) 100 %
19.09.2021 07:50 12,2 C 90 % 1016,9 hPa 0,0 l/m 8,3 km/h (2 Bft) O-SO 104 10,6 C 12,2 C 19,6 km/h (3 Bft) 100 %
19.09.2021 07:40 12,2 C 89 % 1016,9 hPa 0,0 l/m 9,6 km/h (2 Bft) O-SO 105 10,4 C 12,2 C 26,1 km/h (4 Bft) 100 %
19.09.2021 07:30 12,2 C 89 % 1017,0 hPa 0,0 l/m 9,6 km/h (2 Bft) O 88 10,4 C 12,2 C 23,9 km/h (4 Bft) 98 %
19.09.2021 07:20 12,2 C 89 % 1016,9 hPa 0,0 l/m 9,6 km/h (2 Bft) O 91 10,4 C 12,2 C 26,1 km/h (4 Bft) 99 %
19.09.2021 07:10 12,3 C 89 % 1016,9 hPa 0,0 l/m 8,6 km/h (2 Bft) O 98 10,5 C 12,3 C 23,9 km/h (4 Bft) 100 %
19.09.2021 07:00 12,3 C 88 % 1016,9 hPa 0,0 l/m 8,9 km/h (2 Bft) O-NO 71 10,4 C 12,3 C 21,7 km/h (4 Bft) 99 %
_ Min-Zeit 02:50 17:20 17:40 - 00:50 - - 02:20 02:50 00:50 11:00
Minimum _ 9,8 C 62 % 1016,7 hPa - 0,0 km/h (0 Bft) - - 8,3 C 9,8 C 0,0 km/h (0 Bft) 98 %
_ Max-Zeit 16:50 03:30 06:20 07:00 13:10 - - 11:40 16:50 13:10 07:10
Maximum _ 18,2 C 92 % 1020,3 hPa 0,0 l/m 12,8 km/h
O-SO (3 Bft)
- - 13,1 C 18,2 C 32,6 km/h
O (5 Bft)
100 %
Durchschnitt _ 13,7 C 81 % 1018,0 hPa #0,0 l/m 5,8 km/h (2 Bft) O - 10,5 C 13,7 C 15,5 km/h (3 Bft) 99 %